Corystes — GHRU — position and weather

sailwx.info

Track history (hours):
 
Tides and Currents Weather Stations Pressure Air Temp Water Temp Dewpoint Dewpoint Depression Visibility Wind Speed Wind Dir Waves Ship Positions

Oceanographic research ship Corystes (UK)

Detailed information on ship capabilities available from University of Delaware's Ocean Information Center.

Last reported at 2018-May-22 17:17 UTC. Time now 2018-May-22 17:44 UTC.
Position N 53°34' W 005°38'.

Length 53 m; draft 5.2 m.

Type: Cargo ship. MMSI: 233558000.

Date/timePositionNaut miles runAvg speedWind from/ knotsBaromVisibWave heightAir tempDewpointWater temp
2018-May-22 17:17N 53°34' W 005°38'9 7.3
2018-May-22 16:07N 53°34' W 005°52'6 2.7
2018-May-22 13:57N 53°34' W 006°02'1 3.2
2018-May-22 13:29N 53°34' W 005°60'12 6.8
2018-May-22 11:40N 53°22' W 005°53'10 4.8
2018-May-22 09:42N 53°22' W 005°37'52 4.5
2018-May-21 22:12N 54°10' W 005°01'2 9.5
2018-May-21 22:00N 54°11' W 005°03'10 1.8
2018-May-21 16:22N 54°19' W 004°53'3 1.8
2018-May-21 14:51N 54°22' W 004°53'410.7
2018-May-21 14:30N 54°22' W 004°60'510.2
2018-May-21 14:00N 54°23' W 005°09'1 1.0
2018-May-21 13:30N 54°23' W 005°08'1 1.5
2018-May-21 13:00N 54°22' W 005°08'4 9.0
2018-May-21 12:30N 54°22' W 005°16'2 3.5
2018-May-21 12:00N 54°23' W 005°19'1 2.5
2018-May-21 11:30N 54°23' W 005°21'1 2.2
2018-May-21 11:00N 54°22' W 005°23'5 9.3
2018-May-21 10:30N 54°27' W 005°21'510.9
2018-May-21 10:00N 54°32' W 005°23'510.4
2018-May-21 09:30N 54°37' W 005°26'510.4
2018-May-21 09:00N 54°42' W 005°29'5 9.9
2018-May-21 08:30N 54°43' W 005°37'510.8
2018-May-21 08:00N 54°41' W 005°46'5 9.8
2018-May-21 07:30N 54°38' W 005°53'2 3.7
2018-May-21 06:59N 54°36' W 005°55'0 0.0
2018-May-21 06:29N 54°36' W 005°55'0 0.0
2018-May-21 05:59N 54°36' W 005°55'0 0.0
2018-May-21 05:29N 54°36' W 005°55'0 0.0
2018-May-21 04:59N 54°36' W 005°55'0 0.0
2018-May-21 04:29N 54°36' W 005°55'0 0.0
2018-May-21 03:59N 54°36' W 005°55'0 0.0
2018-May-21 03:29N 54°36' W 005°55'0 0.0
2018-May-21 02:59N 54°36' W 005°55'0 0.0
2018-May-21 02:29N 54°36' W 005°55'0 0.0
2018-May-21 01:59N 54°36' W 005°55'0 0.0
2018-May-21 01:29N 54°36' W 005°55'0 0.0
2018-May-21 00:59N 54°36' W 005°55'0 0.0
2018-May-21 00:29N 54°36' W 005°55'0 0.0
2018-May-20 23:59N 54°36' W 005°55'0 0.0
2018-May-20 23:29N 54°36' W 005°55'0 0.0
2018-May-20 22:59N 54°36' W 005°55'0 0.0
2018-May-20 22:26N 54°36' W 005°55'0 0.0
2018-May-20 21:56N 54°36' W 005°55'0 0.0
2018-May-20 21:29N 54°36' W 005°55'0 0.0
2018-May-20 20:59N 54°36' W 005°55'0 0.0
2018-May-20 20:29N 54°36' W 005°55'0 0.0
2018-May-20 19:59N 54°36' W 005°55'0 0.0
2018-May-20 19:29N 54°36' W 005°55'0 0.0
2018-May-20 18:59N 54°36' W 005°55'0 0.0
2018-May-20 18:29N 54°36' W 005°55'0 0.0
2018-May-20 17:59N 54°36' W 005°55'0 0.0
2018-May-20 17:29N 54°36' W 005°55'0 0.0
2018-May-20 16:59N 54°36' W 005°55'0 0.0
2018-May-20 16:29N 54°36' W 005°55'0 0.0
2018-May-20 15:56N 54°36' W 005°55'0 0.0
2018-May-20 15:29N 54°36' W 005°55'0 0.0
2018-May-20 14:56N 54°36' W 005°55'0 0.0
2018-May-20 14:29N 54°36' W 005°55'0 0.0
2018-May-20 13:59N 54°36' W 005°55'0 0.0
2018-May-20 13:29N 54°36' W 005°55'0 0.0
2018-May-20 12:59N 54°36' W 005°55'0 0.0
2018-May-20 12:29N 54°36' W 005°55'0 0.0
2018-May-20 11:59N 54°36' W 005°55'0 0.0
2018-May-20 11:29N 54°36' W 005°55'0 0.0
2018-May-20 10:59N 54°36' W 005°55'0 0.0
2018-May-20 10:29N 54°36' W 005°55'0 0.0
2018-May-20 09:59N 54°36' W 005°55'0 0.0
2018-May-20 09:29N 54°36' W 005°55'0 0.0
2018-May-20 08:59N 54°36' W 005°55'0 0.0
2018-May-20 08:29N 54°36' W 005°55'0 0.0
2018-May-20 07:59N 54°36' W 005°55'0 0.0
2018-May-20 07:26N 54°36' W 005°55'0 0.0
2018-May-20 06:59N 54°36' W 005°55'0 0.0
2018-May-20 06:29N 54°36' W 005°55'0 0.0
2018-May-20 05:59N 54°36' W 005°55'0 0.0
2018-May-20 05:29N 54°36' W 005°55'0 0.0
2018-May-20 04:58N 54°36' W 005°55'0 0.0
2018-May-20 04:28N 54°36' W 005°55'0 0.0
2018-May-20 03:58N 54°36' W 005°55'0 0.0
2018-May-20 03:28N 54°36' W 005°55'0 0.0
2018-May-20 02:59N 54°36' W 005°55'0 0.0
2018-May-20 02:28N 54°36' W 005°55'0 0.0
2018-May-20 01:58N 54°36' W 005°55'0 0.0
2018-May-20 01:28N 54°36' W 005°55'0 0.0
2018-May-20 00:58N 54°36' W 005°55'0 0.0
2018-May-20 00:28N 54°36' W 005°55'0 0.0
2018-May-19 23:58N 54°36' W 005°55'0 0.0
2018-May-19 23:28N 54°36' W 005°55'0 0.0
2018-May-19 22:58N 54°36' W 005°55'0 0.0
2018-May-19 22:25N 54°36' W 005°55'0 0.0
2018-May-19 21:58N 54°36' W 005°55'0 0.0
2018-May-19 21:28N 54°36' W 005°55'0 0.0
2018-May-19 20:58N 54°36' W 005°55'0 0.0
2018-May-19 20:28N 54°36' W 005°55'0 0.0
2018-May-19 19:58N 54°36' W 005°55'0 0.0
2018-May-19 19:28N 54°36' W 005°55'0 0.0
2018-May-19 18:58N 54°36' W 005°55'0 0.0
2018-May-19 18:28N 54°36' W 005°55'0 0.0
2018-May-19 17:58N 54°36' W 005°55'0 0.0
2018-May-19 17:28N 54°36' W 005°55'0 0.0
2018-May-19 16:58N 54°36' W 005°55'0 0.0
2018-May-19 16:28N 54°36' W 005°55'0 0.0
2018-May-19 15:58N 54°36' W 005°55'0 0.0
2018-May-19 15:28N 54°36' W 005°55'0 0.0
2018-May-19 14:58N 54°36' W 005°55'0 0.0
2018-May-19 14:28N 54°36' W 005°55'0 0.0
2018-May-19 13:58N 54°36' W 005°55'0 0.0
2018-May-19 13:28N 54°36' W 005°55'0 0.0
2018-May-19 12:58N 54°36' W 005°55'0 0.0
2018-May-19 12:28N 54°36' W 005°55'0 0.0
2018-May-19 11:52N 54°36' W 005°55'0 0.0
2018-May-19 11:25N 54°36' W 005°55'0 0.0
2018-May-19 10:58N 54°36' W 005°55'0 0.0
2018-May-19 10:28N 54°36' W 005°55'0 0.0
2018-May-19 09:58N 54°36' W 005°55'0 0.0
2018-May-19 09:28N 54°36' W 005°55'0 0.0
2018-May-19 08:58N 54°36' W 005°55'0 0.0
2018-May-19 08:28N 54°36' W 005°55'0 0.0
2018-May-19 07:58N 54°36' W 005°55'0 0.0
2018-May-19 07:28N 54°36' W 005°55'0 0.0
2018-May-19 06:58N 54°36' W 005°55'0 0.0
2018-May-19 06:28N 54°36' W 005°55'0 0.0
2018-May-19 05:52N 54°36' W 005°55'0 0.0
2018-May-19 05:28N 54°36' W 005°55'0 0.0
2018-May-19 04:58N 54°36' W 005°55'0 0.0
2018-May-19 04:28N 54°36' W 005°55'0 0.0
2018-May-19 03:55N 54°36' W 005°55'0 0.0
2018-May-19 03:28N 54°36' W 005°55'0 0.0
2018-May-19 02:58N 54°36' W 005°55'0 0.0
2018-May-19 02:28N 54°36' W 005°55'0 0.0
2018-May-19 01:58N 54°36' W 005°55'0 0.0
2018-May-19 01:28N 54°36' W 005°55'0 0.0
2018-May-19 00:58N 54°36' W 005°55'0 0.0
2018-May-19 00:25N 54°36' W 005°55'0 0.0
2018-May-18 23:52N 54°36' W 005°55'0 0.0
2018-May-18 23:28N 54°36' W 005°55'0 0.0
2018-May-18 22:55N 54°36' W 005°55'0 0.0
2018-May-18 22:30N 54°36' W 005°55'0 0.0
2018-May-18 21:58N 54°36' W 005°55'0 0.0
2018-May-18 21:27N 54°36' W 005°55'0 0.0
2018-May-18 21:00N 54°36' W 005°55'0 0.0
2018-May-18 20:30N 54°36' W 005°55'0 0.0
2018-May-18 20:00N 54°36' W 005°55'0 0.0
2018-May-18 19:30N 54°36' W 005°55'0 0.0
2018-May-18 18:54N 54°36' W 005°55'0 0.0
2018-May-18 18:30N 54°36' W 005°55'0 0.0
2018-May-18 18:00N 54°36' W 005°55'0 0.0
2018-May-18 17:30N 54°36' W 005°55'0 0.0
2018-May-18 17:00N 54°36' W 005°55'0 0.0
2018-May-18 16:30N 54°36' W 005°55'0 0.0
2018-May-18 16:00N 54°36' W 005°55'0 0.0
2018-May-18 15:30N 54°36' W 005°55'0 0.0
2018-May-18 15:00N 54°36' W 005°55'0 0.0
2018-May-18 14:30N 54°36' W 005°55'0 0.0
2018-May-18 14:00N 54°36' W 005°55'0 0.0
2018-May-18 13:27N 54°36' W 005°55'0 0.0
2018-May-18 12:48N 54°36' W 005°55'0 0.0
2018-May-18 12:30N 54°36' W 005°55'0 0.0
2018-May-18 12:00N 54°36' W 005°55'0 0.0
2018-May-18 11:30N 54°36' W 005°55'0 0.0
2018-May-18 10:57N 54°36' W 005°55'0 0.0
2018-May-18 10:30N 54°36' W 005°55'0 0.0
2018-May-18 10:00N 54°36' W 005°55'0 0.0
2018-May-18 09:30N 54°36' W 005°55'0 0.0
2018-May-18 09:00N 54°36' W 005°55'0 0.0
2018-May-18 08:30N 54°36' W 005°55'0 0.0
2018-May-18 08:00N 54°36' W 005°55'0 0.0
2018-May-18 07:30N 54°36' W 005°55'0 0.0
2018-May-18 06:57N 54°36' W 005°55'0 0.0
2018-May-18 06:30N 54°36' W 005°55'0 0.0
2018-May-18 06:00N 54°36' W 005°55'0 0.0
2018-May-18 05:30N 54°36' W 005°55'0 0.0
2018-May-18 04:57N 54°36' W 005°55'0 0.0
2018-May-18 04:30N 54°36' W 005°55'0 0.0
2018-May-18 04:00N 54°36' W 005°55'0 0.0
2018-May-18 03:27N 54°36' W 005°55'0 0.0
2018-May-18 03:00N 54°36' W 005°55'0 0.0
2018-May-18 02:30N 54°36' W 005°55'0 0.0
2018-May-18 02:00N 54°36' W 005°55'0 0.0
2018-May-18 01:27N 54°36' W 005°55'0 0.0
2018-May-18 01:00N 54°36' W 005°55'0 0.0
2018-May-18 00:30N 54°36' W 005°55'0 0.0
2018-May-18 00:00N 54°36' W 005°55'0 0.0
2018-May-17 23:30N 54°36' W 005°55'0 0.0
2018-May-17 23:00N 54°36' W 005°55'0 0.0
2018-May-17 22:30N 54°36' W 005°55'0 0.0
2018-May-17 22:00N 54°36' W 005°55'0 0.0
2018-May-17 21:30N 54°36' W 005°55'0 0.0
2018-May-17 21:00N 54°36' W 005°55'0 0.0
2018-May-17 20:30N 54°36' W 005°55'0 0.0
2018-May-17 20:00N 54°36' W 005°55'0 0.0
2018-May-17 19:30N 54°36' W 005°55'0 0.0
2018-May-17 19:00N 54°36' W 005°55'0 0.0
2018-May-17 18:30N 54°36' W 005°55'0 0.0
2018-May-17 18:00N 54°36' W 005°55'0 0.0
2018-May-17 17:30N 54°36' W 005°55'0 0.0
2018-May-17 17:00N 54°36' W 005°55'0 0.0
2018-May-17 16:30N 54°36' W 005°55'0 0.0
2018-May-17 16:00N 54°36' W 005°55'0 0.0
2018-May-17 15:30N 54°36' W 005°55'0 0.0
2018-May-17 15:00N 54°36' W 005°55'0 0.0
2018-May-17 14:30N 54°36' W 005°55'0 0.0
2018-May-17 13:59N 54°36' W 005°55'0 0.0
2018-May-17 13:27N 54°36' W 005°55'1 1.4
2018-May-17 13:00N 54°37' W 005°54'4 7.1
2018-May-17 12:30N 54°40' W 005°51'510.2
2018-May-17 12:00N 54°43' W 005°43'510.5
2018-May-17 11:30N 54°44' W 005°35'3 5.6
2018-May-17 11:00N 54°45' W 005°30'2 3.0
2018-May-17 10:30N 54°43' W 005°29'4 7.4
2018-May-17 10:00N 54°40' W 005°26'4 7.7
2018-May-17 09:30N 54°36' W 005°24'4 8.2
2018-May-17 09:00N 54°32' W 005°23'4 8.4
2018-May-17 08:30N 54°28' W 005°22'4 8.8
2018-May-17 08:00N 54°24' W 005°21'5 9.4
2018-May-17 07:30N 54°19' W 005°21'5 9.9
2018-May-17 06:59N 54°14' W 005°21'510.2
2018-May-17 06:30N 54°09' W 005°21'3 6.3
2018-May-17 06:00N 54°06' W 005°21'5 9.6
2018-May-17 05:30N 54°01' W 005°20'3 6.5
2018-May-17 05:01N 53°58' W 005°20'15 5.9
2018-May-17 02:28N 53°51' W 005°42'15 4.3
2018-May-16 22:56N 53°43' W 005°20'10 4.6
2018-May-16 20:49N 53°35' W 005°28'411.6
2018-May-16 20:30N 53°31' W 005°28'3 6.6
2018-May-16 20:00N 53°28' W 005°28'611.0
2018-May-16 19:30N 53°22' W 005°30'2 4.2
2018-May-16 19:00N 53°21' W 005°33'3 5.8
2018-May-16 18:30N 53°21' W 005°38'5 9.0
2018-May-16 18:00N 53°21' W 005°45'2 4.3
2018-May-16 17:30N 53°21' W 005°49'3 6.1
2018-May-16 16:59N 53°21' W 005°54'3 5.4
2018-May-16 16:28N 53°20' W 005°59'4 7.3
2018-May-16 15:57N 53°24' W 006°01'3 6.8
2018-May-16 15:30N 53°27' W 006°03'11 3.4
2018-May-16 12:15N 53°37' W 005°54'3 5.6
2018-May-16 11:40N 53°37' W 005°60'0 1.4
2018-May-16 11:31N 53°37' W 005°59'4 5.5
2018-May-16 10:47N 53°37' W 006°06'2 6.1
2018-May-16 10:29N 53°39' W 006°07'4 9.4
2018-May-16 10:00N 53°43' W 006°09'3 4.9
2018-May-16 09:30N 53°43' W 006°05'4 7.5
2018-May-16 09:00N 53°43' W 005°59'5 6.8
2018-May-16 08:13N 53°44' W 005°50'3 9.8
2018-May-16 07:55N 53°47' W 005°50'4 9.1
2018-May-16 07:30N 53°51' W 005°51'3 5.7
2018-May-16 07:00N 53°51' W 005°55'3 6.3
2018-May-16 06:30N 53°51' W 006°01'3 6.4
2018-May-16 06:00N 53°51' W 006°06'3 6.0
2018-May-16 05:30N 53°51' W 006°11'4 8.1
2018-May-16 05:00N 53°55' W 006°09'4 7.2
2018-May-16 04:30N 53°57' W 006°04'4 7.5
2018-May-16 04:00N 53°58' W 005°58'4 7.6
2018-May-16 03:30N 53°58' W 005°52'5 7.2
2018-May-16 02:51N 54°03' W 005°51'310.1
2018-May-16 02:30N 54°06' W 005°52'3 6.1
2018-May-16 02:00N 54°06' W 005°47'3 6.2
2018-May-16 01:30N 54°06' W 005°42'3 5.9
2018-May-16 00:59N 54°06' W 005°36'3 6.4
2018-May-16 00:30N 54°06' W 005°31'3 6.6
2018-May-16 00:00N 54°09' W 005°33'4 8.3
2018-May-15 23:30N 54°13' W 005°35'3 5.1
2018-May-15 23:00N 54°13' W 005°31'4 8.5
2018-May-15 22:30N 54°13' W 005°24'4 7.6
2018-May-15 22:00N 54°13' W 005°17'3 5.2
2018-May-15 21:30N 54°15' W 005°16'510.7
2018-May-15 21:00N 54°21' W 005°18'3 6.8
2018-May-15 20:30N 54°21' W 005°12'2 4.6
2018-May-15 20:00N 54°23' W 005°11'5 9.8
2018-May-15 19:30N 54°28' W 005°12'4 8.2
2018-May-15 19:00N 54°28' W 005°19'2 4.4
2018-May-15 18:30N 54°27' W 005°23'4 7.9
2018-May-15 18:00N 54°23' W 005°23'2 5.0
2018-May-15 17:30N 54°21' W 005°25'510.5
2018-May-15 17:00N 54°24' W 005°18'510.7
2018-May-15 16:30N 54°27' W 005°10'510.4
2018-May-15 16:00N 54°30' W 005°03'4 8.1
2018-May-15 15:30N 54°33' W 004°58'4 7.8
2018-May-15 15:00N 54°35' W 005°04'4 8.1
2018-May-15 14:30N 54°37' W 005°10'4 9.0
2018-May-15 14:00N 54°40' W 005°16'4 8.4
2018-May-15 13:30N 54°42' W 005°23'4 7.9
2018-May-15 13:00N 54°43' W 005°29'4 7.7
2018-May-15 12:30N 54°45' W 005°35'0 0.9
2018-May-15 12:00N 54°45' W 005°35'510.4
2018-May-15 11:30N 54°48' W 005°27'3 5.3
2018-May-15 11:00N 54°49' W 005°23'3 5.7
2018-May-15 10:30N 54°52' W 005°26'611.0
2018-May-15 10:00N 54°57' W 005°31'611.2
2018-May-15 09:29N 55°02' W 005°36'1111.2
2018-May-15 08:30N 55°11' W 005°44'612.2
2018-May-15 08:00N 55°17' W 005°49'612.3
2018-May-15 07:30N 55°22' W 005°54'611.3
2018-May-15 07:00N 55°26' W 006°02'510.6
2018-May-15 06:30N 55°28' W 006°10'3 7.0
2018-May-15 06:00N 55°30' W 006°16'510.5
2018-May-15 05:30N 55°33' W 006°23'510.3
2018-May-15 05:00N 55°36' W 006°31'5 9.9
2018-May-15 04:30N 55°38' W 006°38'5 9.1
2018-May-15 04:00N 55°40' W 006°45'4 8.1
2018-May-15 03:30N 55°42' W 006°51'4 7.6
2018-May-15 02:58N 55°45' W 006°57'2 2.2
2018-May-15 02:15N 55°45' W 006°60'65 1.9
2018-May-13 15:55N 55°25' W 008°50'1 2.3
2018-May-13 15:27N 55°24' W 008°49'3 4.7
2018-May-13 14:49N 55°22' W 008°45'3 8.8
2018-May-13 14:30N 55°21' W 008°41'4 8.8
2018-May-13 13:59N 55°18' W 008°35'6 9.1
2018-May-13 13:21N 55°23' W 008°29'3 9.2
2018-May-13 13:00N 55°26' W 008°26'5 9.1
2018-May-13 12:27N 55°30' W 008°21'5 9.2
2018-May-13 11:51N 55°34' W 008°15'1 1.2
2018-May-13 11:16N 55°35' W 008°15'2 5.1
2018-May-13 10:56N 55°34' W 008°12'5 9.4
2018-May-13 10:27N 55°32' W 008°05'4 9.6
2018-May-13 10:00N 55°29' W 007°58'5 9.8
2018-May-13 09:28N 55°27' W 007°51'4 7.8
2018-May-13 09:00N 55°25' W 007°45'4 6.4
2018-May-13 08:22N 55°25' W 007°38'4 9.3
2018-May-13 07:58N 55°26' W 007°31'5 8.9
2018-May-13 07:27N 55°26' W 007°23'1 2.6
2018-May-13 06:53N 55°26' W 007°21'4 7.6
2018-May-13 06:25N 55°24' W 007°15'3 7.3
2018-May-13 06:00N 55°24' W 007°10'6 8.8
2018-May-13 05:22N 55°27' W 007°01'1 1.5
2018-May-13 04:55N 55°27' W 006°60'4 8.5
2018-May-13 04:25N 55°25' W 006°53'4 9.1
2018-May-13 04:00N 55°24' W 006°47'5 9.7
2018-May-13 03:30N 55°21' W 006°40'5 9.9
2018-May-13 03:00N 55°20' W 006°31'510.2
2018-May-13 02:30N 55°20' W 006°22'510.2
2018-May-13 02:00N 55°20' W 006°13'5 9.9
2018-May-13 01:30N 55°17' W 006°06'510.2
2018-May-13 01:00N 55°13' W 005°60'3 6.0
2018-May-13 00:30N 55°14' W 005°55'3 6.7
2018-May-13 00:00N 55°12' W 005°50'510.4
2018-May-12 23:30N 55°08' W 005°43'610.3
2018-May-12 22:58N 55°04' W 005°38'511.3
2018-May-12 22:30N 54°59' W 005°33'510.9
2018-May-12 22:00N 54°55' W 005°29'510.6
2018-May-12 21:30N 54°50' W 005°24'2 4.3
2018-May-12 21:00N 54°48' W 005°22'5 9.6
2018-May-12 20:30N 54°44' W 005°18'5 9.5
2018-May-12 20:00N 54°40' W 005°14'5 9.4
2018-May-12 19:30N 54°36' W 005°10'2 4.9
2018-May-12 19:00N 54°34' W 005°07'4 8.9
2018-May-12 18:30N 54°32' W 005°00'5 9.1
2018-May-12 18:00N 54°29' W 004°54'2 4.2
2018-May-12 17:30N 54°28' W 004°51'  
Track history (hours):
 
Tides and Currents Weather Stations Pressure Air Temp Water Temp Dewpoint Dewpoint Depression Visibility Wind Speed Wind Dir Waves Ship Positions

Oceanographic research ship Corystes (UK)

Detailed information on ship capabilities available from University of Delaware's Ocean Information Center.

Last reported at 2018-May-22 17:17 UTC. Time now 2018-May-22 17:44 UTC.
Position N 53°34' W 005°38'.

Length 53 m; draft 5.2 m.

Type: Cargo ship. MMSI: 233558000.

Date/timePositionNaut miles runAvg speedWind from/ knotsBaromVisibWave heightAir tempDewpointWater temp
2018-May-22 17:17N 53°34' W 005°38'9 7.3
2018-May-22 16:07N 53°34' W 005°52'6 2.7
2018-May-22 13:57N 53°34' W 006°02'1 3.2
2018-May-22 13:29N 53°34' W 005°60'12 6.8
2018-May-22 11:40N 53°22' W 005°53'10 4.8
2018-May-22 09:42N 53°22' W 005°37'52 4.5
2018-May-21 22:12N 54°10' W 005°01'2 9.5
2018-May-21 22:00N 54°11' W 005°03'10 1.8
2018-May-21 16:22N 54°19' W 004°53'3 1.8
2018-May-21 14:51N 54°22' W 004°53'410.7
2018-May-21 14:30N 54°22' W 004°60'510.2
2018-May-21 14:00N 54°23' W 005°09'1 1.0
2018-May-21 13:30N 54°23' W 005°08'1 1.5
2018-May-21 13:00N 54°22' W 005°08'4 9.0
2018-May-21 12:30N 54°22' W 005°16'2 3.5
2018-May-21 12:00N 54°23' W 005°19'1 2.5
2018-May-21 11:30N 54°23' W 005°21'1 2.2
2018-May-21 11:00N 54°22' W 005°23'5 9.3
2018-May-21 10:30N 54°27' W 005°21'510.9
2018-May-21 10:00N 54°32' W 005°23'510.4
2018-May-21 09:30N 54°37' W 005°26'510.4
2018-May-21 09:00N 54°42' W 005°29'5 9.9
2018-May-21 08:30N 54°43' W 005°37'510.8
2018-May-21 08:00N 54°41' W 005°46'5 9.8
2018-May-21 07:30N 54°38' W 005°53'2 3.7
2018-May-21 06:59N 54°36' W 005°55'0 0.0
2018-May-21 06:29N 54°36' W 005°55'0 0.0
2018-May-21 05:59N 54°36' W 005°55'0 0.0
2018-May-21 05:29N 54°36' W 005°55'0 0.0
2018-May-21 04:59N 54°36' W 005°55'0 0.0
2018-May-21 04:29N 54°36' W 005°55'0 0.0
2018-May-21 03:59N 54°36' W 005°55'0 0.0
2018-May-21 03:29N 54°36' W 005°55'0 0.0
2018-May-21 02:59N 54°36' W 005°55'0 0.0
2018-May-21 02:29N 54°36' W 005°55'0 0.0
2018-May-21 01:59N 54°36' W 005°55'0 0.0
2018-May-21 01:29N 54°36' W 005°55'0 0.0
2018-May-21 00:59N 54°36' W 005°55'0 0.0
2018-May-21 00:29N 54°36' W 005°55'0 0.0
2018-May-20 23:59N 54°36' W 005°55'0 0.0
2018-May-20 23:29N 54°36' W 005°55'0 0.0
2018-May-20 22:59N 54°36' W 005°55'0 0.0
2018-May-20 22:26N 54°36' W 005°55'0 0.0
2018-May-20 21:56N 54°36' W 005°55'0 0.0
2018-May-20 21:29N 54°36' W 005°55'0 0.0
2018-May-20 20:59N 54°36' W 005°55'0 0.0
2018-May-20 20:29N 54°36' W 005°55'0 0.0
2018-May-20 19:59N 54°36' W 005°55'0 0.0
2018-May-20 19:29N 54°36' W 005°55'0 0.0
2018-May-20 18:59N 54°36' W 005°55'0 0.0
2018-May-20 18:29N 54°36' W 005°55'0 0.0
2018-May-20 17:59N 54°36' W 005°55'0 0.0
2018-May-20 17:29N 54°36' W 005°55'0 0.0
2018-May-20 16:59N 54°36' W 005°55'0 0.0
2018-May-20 16:29N 54°36' W 005°55'0 0.0
2018-May-20 15:56N 54°36' W 005°55'0 0.0
2018-May-20 15:29N 54°36' W 005°55'0 0.0
2018-May-20 14:56N 54°36' W 005°55'0 0.0
2018-May-20 14:29N 54°36' W 005°55'0 0.0
2018-May-20 13:59N 54°36' W 005°55'0 0.0
2018-May-20 13:29N 54°36' W 005°55'0 0.0
2018-May-20 12:59N 54°36' W 005°55'0 0.0
2018-May-20 12:29N 54°36' W 005°55'0 0.0
2018-May-20 11:59N 54°36' W 005°55'0 0.0
2018-May-20 11:29N 54°36' W 005°55'0 0.0
2018-May-20 10:59N 54°36' W 005°55'0 0.0
2018-May-20 10:29N 54°36' W 005°55'0 0.0
2018-May-20 09:59N 54°36' W 005°55'0 0.0
2018-May-20 09:29N 54°36' W 005°55'0 0.0
2018-May-20 08:59N 54°36' W 005°55'0 0.0
2018-May-20 08:29N 54°36' W 005°55'0 0.0
2018-May-20 07:59N 54°36' W 005°55'0 0.0
2018-May-20 07:26N 54°36' W 005°55'0 0.0
2018-May-20 06:59N 54°36' W 005°55'0 0.0
2018-May-20 06:29N 54°36' W 005°55'0 0.0
2018-May-20 05:59N 54°36' W 005°55'0 0.0
2018-May-20 05:29N 54°36' W 005°55'0 0.0
2018-May-20 04:58N 54°36' W 005°55'0 0.0
2018-May-20 04:28N 54°36' W 005°55'0 0.0
2018-May-20 03:58N 54°36' W 005°55'0 0.0
2018-May-20 03:28N 54°36' W 005°55'0 0.0
2018-May-20 02:59N 54°36' W 005°55'0 0.0
2018-May-20 02:28N 54°36' W 005°55'0 0.0
2018-May-20 01:58N 54°36' W 005°55'0 0.0
2018-May-20 01:28N 54°36' W 005°55'0 0.0
2018-May-20 00:58N 54°36' W 005°55'0 0.0
2018-May-20 00:28N 54°36' W 005°55'0 0.0
2018-May-19 23:58N 54°36' W 005°55'0 0.0
2018-May-19 23:28N 54°36' W 005°55'0 0.0
2018-May-19 22:58N 54°36' W 005°55'0 0.0
2018-May-19 22:25N 54°36' W 005°55'0 0.0
2018-May-19 21:58N 54°36' W 005°55'0 0.0
2018-May-19 21:28N 54°36' W 005°55'0 0.0
2018-May-19 20:58N 54°36' W 005°55'0 0.0
2018-May-19 20:28N 54°36' W 005°55'0 0.0
2018-May-19 19:58N 54°36' W 005°55'0 0.0
2018-May-19 19:28N 54°36' W 005°55'0 0.0
2018-May-19 18:58N 54°36' W 005°55'0 0.0
2018-May-19 18:28N 54°36' W 005°55'0 0.0
2018-May-19 17:58N 54°36' W 005°55'0 0.0
2018-May-19 17:28N 54°36' W 005°55'0 0.0
2018-May-19 16:58N 54°36' W 005°55'0 0.0
2018-May-19 16:28N 54°36' W 005°55'0 0.0
2018-May-19 15:58N 54°36' W 005°55'0 0.0
2018-May-19 15:28N 54°36' W 005°55'0 0.0
2018-May-19 14:58N 54°36' W 005°55'0 0.0
2018-May-19 14:28N 54°36' W 005°55'0 0.0
2018-May-19 13:58N 54°36' W 005°55'0 0.0
2018-May-19 13:28N 54°36' W 005°55'0 0.0
2018-May-19 12:58N 54°36' W 005°55'0 0.0
2018-May-19 12:28N 54°36' W 005°55'0 0.0
2018-May-19 11:52N 54°36' W 005°55'0 0.0
2018-May-19 11:25N 54°36' W 005°55'0 0.0
2018-May-19 10:58N 54°36' W 005°55'0 0.0
2018-May-19 10:28N 54°36' W 005°55'0 0.0
2018-May-19 09:58N 54°36' W 005°55'0 0.0
2018-May-19 09:28N 54°36' W 005°55'0 0.0
2018-May-19 08:58N 54°36' W 005°55'0 0.0
2018-May-19 08:28N 54°36' W 005°55'0 0.0
2018-May-19 07:58N 54°36' W 005°55'0 0.0
2018-May-19 07:28N 54°36' W 005°55'0 0.0
2018-May-19 06:58N 54°36' W 005°55'0 0.0
2018-May-19 06:28N 54°36' W 005°55'0 0.0
2018-May-19 05:52N 54°36' W 005°55'0 0.0
2018-May-19 05:28N 54°36' W 005°55'0 0.0
2018-May-19 04:58N 54°36' W 005°55'0 0.0
2018-May-19 04:28N 54°36' W 005°55'0 0.0
2018-May-19 03:55N 54°36' W 005°55'0 0.0
2018-May-19 03:28N 54°36' W 005°55'0 0.0
2018-May-19 02:58N 54°36' W 005°55'0 0.0
2018-May-19 02:28N 54°36' W 005°55'0 0.0
2018-May-19 01:58N 54°36' W 005°55'0 0.0
2018-May-19 01:28N 54°36' W 005°55'0 0.0
2018-May-19 00:58N 54°36' W 005°55'0 0.0
2018-May-19 00:25N 54°36' W 005°55'0 0.0
2018-May-18 23:52N 54°36' W 005°55'0 0.0
2018-May-18 23:28N 54°36' W 005°55'0 0.0
2018-May-18 22:55N 54°36' W 005°55'0 0.0
2018-May-18 22:30N 54°36' W 005°55'0 0.0
2018-May-18 21:58N 54°36' W 005°55'0 0.0
2018-May-18 21:27N 54°36' W 005°55'0 0.0
2018-May-18 21:00N 54°36' W 005°55'0 0.0
2018-May-18 20:30N 54°36' W 005°55'0 0.0
2018-May-18 20:00N 54°36' W 005°55'0 0.0
2018-May-18 19:30N 54°36' W 005°55'0 0.0
2018-May-18 18:54N 54°36' W 005°55'0 0.0
2018-May-18 18:30N 54°36' W 005°55'0 0.0
2018-May-18 18:00N 54°36' W 005°55'0 0.0
2018-May-18 17:30N 54°36' W 005°55'0 0.0
2018-May-18 17:00N 54°36' W 005°55'0 0.0
2018-May-18 16:30N 54°36' W 005°55'0 0.0
2018-May-18 16:00N 54°36' W 005°55'0 0.0
2018-May-18 15:30N 54°36' W 005°55'0 0.0
2018-May-18 15:00N 54°36' W 005°55'0 0.0
2018-May-18 14:30N 54°36' W 005°55'0 0.0
2018-May-18 14:00N 54°36' W 005°55'0 0.0
2018-May-18 13:27N 54°36' W 005°55'0 0.0
2018-May-18 12:48N 54°36' W 005°55'0 0.0
2018-May-18 12:30N 54°36' W 005°55'0 0.0
2018-May-18 12:00N 54°36' W 005°55'0 0.0
2018-May-18 11:30N 54°36' W 005°55'0 0.0
2018-May-18 10:57N 54°36' W 005°55'0 0.0
2018-May-18 10:30N 54°36' W 005°55'0 0.0
2018-May-18 10:00N 54°36' W 005°55'0 0.0
2018-May-18 09:30N 54°36' W 005°55'0 0.0
2018-May-18 09:00N 54°36' W 005°55'0 0.0
2018-May-18 08:30N 54°36' W 005°55'0 0.0
2018-May-18 08:00N 54°36' W 005°55'0 0.0
2018-May-18 07:30N 54°36' W 005°55'0 0.0
2018-May-18 06:57N 54°36' W 005°55'0 0.0
2018-May-18 06:30N 54°36' W 005°55'0 0.0
2018-May-18 06:00N 54°36' W 005°55'0 0.0
2018-May-18 05:30N 54°36' W 005°55'0 0.0
2018-May-18 04:57N 54°36' W 005°55'0 0.0
2018-May-18 04:30N 54°36' W 005°55'0 0.0
2018-May-18 04:00N 54°36' W 005°55'0 0.0
2018-May-18 03:27N 54°36' W 005°55'0 0.0
2018-May-18 03:00N 54°36' W 005°55'0 0.0
2018-May-18 02:30N 54°36' W 005°55'0 0.0
2018-May-18 02:00N 54°36' W 005°55'0 0.0
2018-May-18 01:27N 54°36' W 005°55'0 0.0
2018-May-18 01:00N 54°36' W 005°55'0 0.0
2018-May-18 00:30N 54°36' W 005°55'0 0.0
2018-May-18 00:00N 54°36' W 005°55'0 0.0
2018-May-17 23:30N 54°36' W 005°55'0 0.0
2018-May-17 23:00N 54°36' W 005°55'0 0.0
2018-May-17 22:30N 54°36' W 005°55'0 0.0
2018-May-17 22:00N 54°36' W 005°55'0 0.0
2018-May-17 21:30N 54°36' W 005°55'0 0.0
2018-May-17 21:00N 54°36' W 005°55'0 0.0
2018-May-17 20:30N 54°36' W 005°55'0 0.0
2018-May-17 20:00N 54°36' W 005°55'0 0.0
2018-May-17 19:30N 54°36' W 005°55'0 0.0
2018-May-17 19:00N 54°36' W 005°55'0 0.0
2018-May-17 18:30N 54°36' W 005°55'0 0.0
2018-May-17 18:00N 54°36' W 005°55'0 0.0
2018-May-17 17:30N 54°36' W 005°55'0 0.0
2018-May-17 17:00N 54°36' W 005°55'0 0.0
2018-May-17 16:30N 54°36' W 005°55'0 0.0
2018-May-17 16:00N 54°36' W 005°55'0 0.0
2018-May-17 15:30N 54°36' W 005°55'0 0.0
2018-May-17 15:00N 54°36' W 005°55'0 0.0
2018-May-17 14:30N 54°36' W 005°55'0 0.0
2018-May-17 13:59N 54°36' W 005°55'0 0.0
2018-May-17 13:27N 54°36' W 005°55'1 1.4
2018-May-17 13:00N 54°37' W 005°54'4 7.1
2018-May-17 12:30N 54°40' W 005°51'510.2
2018-May-17 12:00N 54°43' W 005°43'510.5
2018-May-17 11:30N 54°44' W 005°35'3 5.6
2018-May-17 11:00N 54°45' W 005°30'2 3.0
2018-May-17 10:30N 54°43' W 005°29'4 7.4
2018-May-17 10:00N 54°40' W 005°26'4 7.7
2018-May-17 09:30N 54°36' W 005°24'4 8.2
2018-May-17 09:00N 54°32' W 005°23'4 8.4
2018-May-17 08:30N 54°28' W 005°22'4 8.8
2018-May-17 08:00N 54°24' W 005°21'5 9.4
2018-May-17 07:30N 54°19' W 005°21'5 9.9
2018-May-17 06:59N 54°14' W 005°21'510.2
2018-May-17 06:30N 54°09' W 005°21'3 6.3
2018-May-17 06:00N 54°06' W 005°21'5 9.6
2018-May-17 05:30N 54°01' W 005°20'3 6.5
2018-May-17 05:01N 53°58' W 005°20'15 5.9
2018-May-17 02:28N 53°51' W 005°42'15 4.3
2018-May-16 22:56N 53°43' W 005°20'10 4.6
2018-May-16 20:49N 53°35' W 005°28'411.6
2018-May-16 20:30N 53°31' W 005°28'3 6.6
2018-May-16 20:00N 53°28' W 005°28'611.0
2018-May-16 19:30N 53°22' W 005°30'2 4.2
2018-May-16 19:00N 53°21' W 005°33'3 5.8
2018-May-16 18:30N 53°21' W 005°38'5 9.0
2018-May-16 18:00N 53°21' W 005°45'2 4.3
2018-May-16 17:30N 53°21' W 005°49'3 6.1
2018-May-16 16:59N 53°21' W 005°54'3 5.4
2018-May-16 16:28N 53°20' W 005°59'4 7.3
2018-May-16 15:57N 53°24' W 006°01'3 6.8
2018-May-16 15:30N 53°27' W 006°03'11 3.4
2018-May-16 12:15N 53°37' W 005°54'3 5.6
2018-May-16 11:40N 53°37' W 005°60'0 1.4
2018-May-16 11:31N 53°37' W 005°59'4 5.5
2018-May-16 10:47N 53°37' W 006°06'2 6.1
2018-May-16 10:29N 53°39' W 006°07'4 9.4
2018-May-16 10:00N 53°43' W 006°09'3 4.9
2018-May-16 09:30N 53°43' W 006°05'4 7.5
2018-May-16 09:00N 53°43' W 005°59'5 6.8
2018-May-16 08:13N 53°44' W 005°50'3 9.8
2018-May-16 07:55N 53°47' W 005°50'4 9.1
2018-May-16 07:30N 53°51' W 005°51'3 5.7
2018-May-16 07:00N 53°51' W 005°55'3 6.3
2018-May-16 06:30N 53°51' W 006°01'3 6.4
2018-May-16 06:00N 53°51' W 006°06'3 6.0
2018-May-16 05:30N 53°51' W 006°11'4 8.1
2018-May-16 05:00N 53°55' W 006°09'4 7.2
2018-May-16 04:30N 53°57' W 006°04'4 7.5
2018-May-16 04:00N 53°58' W 005°58'4 7.6
2018-May-16 03:30N 53°58' W 005°52'5 7.2
2018-May-16 02:51N 54°03' W 005°51'310.1
2018-May-16 02:30N 54°06' W 005°52'3 6.1
2018-May-16 02:00N 54°06' W 005°47'3 6.2
2018-May-16 01:30N 54°06' W 005°42'3 5.9
2018-May-16 00:59N 54°06' W 005°36'3 6.4
2018-May-16 00:30N 54°06' W 005°31'3 6.6
2018-May-16 00:00N 54°09' W 005°33'4 8.3
2018-May-15 23:30N 54°13' W 005°35'3 5.1
2018-May-15 23:00N 54°13' W 005°31'4 8.5
2018-May-15 22:30N 54°13' W 005°24'4 7.6
2018-May-15 22:00N 54°13' W 005°17'3 5.2
2018-May-15 21:30N 54°15' W 005°16'510.7
2018-May-15 21:00N 54°21' W 005°18'3 6.8
2018-May-15 20:30N 54°21' W 005°12'2 4.6
2018-May-15 20:00N 54°23' W 005°11'5 9.8
2018-May-15 19:30N 54°28' W 005°12'4 8.2
2018-May-15 19:00N 54°28' W 005°19'2 4.4
2018-May-15 18:30N 54°27' W 005°23'4 7.9
2018-May-15 18:00N 54°23' W 005°23'2 5.0
2018-May-15 17:30N 54°21' W 005°25'510.5
2018-May-15 17:00N 54°24' W 005°18'510.7
2018-May-15 16:30N 54°27' W 005°10'510.4
2018-May-15 16:00N 54°30' W 005°03'4 8.1
2018-May-15 15:30N 54°33' W 004°58'4 7.8
2018-May-15 15:00N 54°35' W 005°04'4 8.1
2018-May-15 14:30N 54°37' W 005°10'4 9.0
2018-May-15 14:00N 54°40' W 005°16'4 8.4
2018-May-15 13:30N 54°42' W 005°23'4 7.9
2018-May-15 13:00N 54°43' W 005°29'4 7.7
2018-May-15 12:30N 54°45' W 005°35'0 0.9
2018-May-15 12:00N 54°45' W 005°35'510.4
2018-May-15 11:30N 54°48' W 005°27'3 5.3
2018-May-15 11:00N 54°49' W 005°23'3 5.7
2018-May-15 10:30N 54°52' W 005°26'611.0
2018-May-15 10:00N 54°57' W 005°31'611.2
2018-May-15 09:29N 55°02' W 005°36'1111.2
2018-May-15 08:30N 55°11' W 005°44'612.2
2018-May-15 08:00N 55°17' W 005°49'612.3
2018-May-15 07:30N 55°22' W 005°54'611.3
2018-May-15 07:00N 55°26' W 006°02'510.6
2018-May-15 06:30N 55°28' W 006°10'3 7.0
2018-May-15 06:00N 55°30' W 006°16'510.5
2018-May-15 05:30N 55°33' W 006°23'510.3
2018-May-15 05:00N 55°36' W 006°31'5 9.9
2018-May-15 04:30N 55°38' W 006°38'5 9.1
2018-May-15 04:00N 55°40' W 006°45'4 8.1
2018-May-15 03:30N 55°42' W 006°51'4 7.6
2018-May-15 02:58N 55°45' W 006°57'2 2.2
2018-May-15 02:15N 55°45' W 006°60'65 1.9
2018-May-13 15:55N 55°25' W 008°50'1 2.3
2018-May-13 15:27N 55°24' W 008°49'3 4.7
2018-May-13 14:49N 55°22' W 008°45'3 8.8
2018-May-13 14:30N 55°21' W 008°41'4 8.8
2018-May-13 13:59N 55°18' W 008°35'6 9.1
2018-May-13 13:21N 55°23' W 008°29'3 9.2
2018-May-13 13:00N 55°26' W 008°26'5 9.1
2018-May-13 12:27N 55°30' W 008°21'5 9.2
2018-May-13 11:51N 55°34' W 008°15'1 1.2
2018-May-13 11:16N 55°35' W 008°15'2 5.1
2018-May-13 10:56N 55°34' W 008°12'5 9.4
2018-May-13 10:27N 55°32' W 008°05'4 9.6
2018-May-13 10:00N 55°29' W 007°58'5 9.8
2018-May-13 09:28N 55°27' W 007°51'4 7.8
2018-May-13 09:00N 55°25' W 007°45'4 6.4
2018-May-13 08:22N 55°25' W 007°38'4 9.3
2018-May-13 07:58N 55°26' W 007°31'5 8.9
2018-May-13 07:27N 55°26' W 007°23'1 2.6
2018-May-13 06:53N 55°26' W 007°21'4 7.6
2018-May-13 06:25N 55°24' W 007°15'3 7.3
2018-May-13 06:00N 55°24' W 007°10'6 8.8
2018-May-13 05:22N 55°27' W 007°01'1 1.5
2018-May-13 04:55N 55°27' W 006°60'4 8.5
2018-May-13 04:25N 55°25' W 006°53'4 9.1
2018-May-13 04:00N 55°24' W 006°47'5 9.7
2018-May-13 03:30N 55°21' W 006°40'5 9.9
2018-May-13 03:00N 55°20' W 006°31'510.2
2018-May-13 02:30N 55°20' W 006°22'510.2
2018-May-13 02:00N 55°20' W 006°13'5 9.9
2018-May-13 01:30N 55°17' W 006°06'510.2
2018-May-13 01:00N 55°13' W 005°60'3 6.0
2018-May-13 00:30N 55°14' W 005°55'3 6.7
2018-May-13 00:00N 55°12' W 005°50'510.4
2018-May-12 23:30N 55°08' W 005°43'610.3
2018-May-12 22:58N 55°04' W 005°38'511.3
2018-May-12 22:30N 54°59' W 005°33'510.9
2018-May-12 22:00N 54°55' W 005°29'510.6
2018-May-12 21:30N 54°50' W 005°24'2 4.3
2018-May-12 21:00N 54°48' W 005°22'5 9.6
2018-May-12 20:30N 54°44' W 005°18'5 9.5
2018-May-12 20:00N 54°40' W 005°14'5 9.4
2018-May-12 19:30N 54°36' W 005°10'2 4.9
2018-May-12 19:00N 54°34' W 005°07'4 8.9
2018-May-12 18:30N 54°32' W 005°00'5 9.1
2018-May-12 18:00N 54°29' W 004°54'2 4.2
2018-May-12 17:30N 54°28' W 004°51'  

Dump ship's entire track history